Time;durP1;ratioP1;P1;durP2;ratioP2;P2;SDS_P1;SDS_P2;PMS_P1;PMS_P2;Temp;Humidity;BMP_temperature;BMP_pressure;BME280_temperature;BME280_humidity;BME280_pressure;Samples;Min_cycle;Max_cycle;Signal;HPM_P1;HPM_P2
2022/12/30 00:00:44;;;;;;;13.50;8.10;;;;;;;7.77;75.26;99948.48;107561;1254;80656;-61
2022/12/30 00:03:42;;;;;;;12.80;8.30;;;;;;;7.81;75.36;99950.85;107566;1253;84651;-59
2022/12/30 00:06:25;;;;;;;12.00;8.50;;;;;;;7.79;75.29;99951.05;107434;1254;98204;-60
2022/12/30 00:09:03;;;;;;;11.20;8.10;;;;;;;7.78;75.31;99952.96;107541;1261;88481;-58
2022/12/30 00:11:45;;;;;;;14.30;8.50;;;;;;;7.74;75.29;99952.56;107436;1254;94770;-58
2022/12/30 00:35:39;;;;;;;12.50;7.90;;;;;;;7.35;75.39;99975.66;107543;1254;97716;-59
2022/12/30 00:38:24;;;;;;;15.50;8.70;;;;;;;7.24;75.50;99976.58;107637;1257;86594;-58
2022/12/30 00:43:54;;;;;;;13.70;9.10;;;;;;;6.99;75.65;99980.39;107576;1256;80348;-59
2022/12/30 00:46:34;;;;;;;15.40;8.20;;;;;;;6.90;75.62;99979.27;107608;1255;83551;-60
2022/12/30 00:58:09;;;;;;;13.40;9.30;;;;;;;6.64;76.26;99982.17;107577;1254;80394;-57
2022/12/30 01:00:47;;;;;;;15.10;8.70;;;;;;;6.58;76.24;99983.95;107520;1253;83784;-58
2022/12/30 01:03:26;;;;;;;13.30;8.70;;;;;;;6.51;76.50;99993.03;107584;1254;98837;-60
2022/12/30 01:06:15;;;;;;;14.70;8.20;;;;;;;6.44;76.55;99994.06;107639;1254;87779;-58
2022/12/30 01:08:52;;;;;;;13.40;8.40;;;;;;;6.39;76.56;99993.55;107513;1254;95698;-59
2022/12/30 01:11:33;;;;;;;13.10;8.50;;;;;;;6.37;76.73;99994.32;107542;1253;82114;-58
2022/12/30 01:14:16;;;;;;;14.20;8.30;;;;;;;6.41;77.00;100005.30;107568;1254;83066;-58
2022/12/30 01:16:58;;;;;;;11.60;7.90;;;;;;;6.49;77.21;100004.45;107585;1255;98865;-59
2022/12/30 01:19:41;;;;;;;12.60;8.60;;;;;;;6.57;77.11;99997.27;107516;1254;89355;-60
2022/12/30 01:22:26;;;;;;;16.20;9.10;;;;;;;6.64;77.25;99992.59;107626;1257;94906;-59
2022/12/30 01:25:12;;;;;;;10.80;7.90;;;;;;;6.68;77.27;99988.10;107555;1253;81723;-59
2022/12/30 01:27:56;;;;;;;14.40;8.60;;;;;;;6.72;77.16;99987.89;107586;1254;80861;-58
2022/12/30 01:30:40;;;;;;;12.50;8.30;;;;;;;6.72;77.27;99984.42;107617;1254;99514;-58
2022/12/30 01:33:25;;;;;;;12.50;8.30;;;;;;;6.76;77.10;99980.75;107588;1253;87103;-58
2022/12/30 01:36:07;;;;;;;13.50;8.50;;;;;;;6.77;77.14;99981.95;107621;1254;94032;-59
2022/12/30 01:38:49;;;;;;;11.70;7.60;;;;;;;6.75;77.03;99980.02;107580;1254;80807;-59
2022/12/30 01:41:26;;;;;;;13.20;8.30;;;;;;;6.72;77.03;99991.61;107615;1257;82711;-59
2022/12/30 01:44:05;;;;;;;12.70;8.90;;;;;;;6.68;77.24;99993.50;107504;1255;99191;-59
2022/12/30 01:46:46;;;;;;;12.80;8.60;;;;;;;6.65;77.08;99994.05;107586;1257;88341;-58
2022/12/30 01:49:26;;;;;;;12.90;7.80;;;;;;;6.57;77.09;99991.66;107574;1253;93015;-58
2022/12/30 01:52:04;;;;;;;13.40;7.80;;;;;;;6.48;76.99;99998.30;107559;1254;80793;-58
2022/12/30 01:54:40;;;;;;;13.40;9.20;;;;;;;6.38;77.11;99998.65;107596;1254;82978;-59
2022/12/30 01:57:22;;;;;;;13.10;8.70;;;;;;;6.29;77.26;99993.80;107596;1254;98464;-58
2022/12/30 02:00:03;;;;;;;11.70;8.60;;;;;;;6.28;77.38;100006.86;107599;1254;86880;-59
2022/12/30 02:02:46;;;;;;;14.90;8.60;;;;;;;6.34;77.47;100009.04;107567;1254;95245;-58
2022/12/30 02:05:31;;;;;;;14.00;9.00;;;;;;;6.43;77.60;100014.02;107534;1254;80510;-58
2022/12/30 02:08:14;;;;;;;17.20;9.90;;;;;;;6.50;77.63;100015.95;107553;1254;82782;-59
2022/12/30 02:10:54;;;;;;;13.70;8.70;;;;;;;6.55;77.60;99999.83;107518;1254;99982;-59
2022/12/30 02:13:37;;;;;;;13.10;8.50;;;;;;;6.56;77.44;99991.38;107522;1254;87789;-59
2022/12/30 02:16:37;;;;;;;12.10;7.90;;;;;;;6.51;77.58;99992.91;107609;1254;94887;-58
2022/12/30 02:19:52;;;;;;;12.30;8.60;;;;;;;6.49;77.51;99997.55;107572;1254;80603;-60
2022/12/30 02:22:43;;;;;;;13.80;9.10;;;;;;;6.54;77.52;99996.55;107597;1253;82135;-60
2022/12/30 02:25:53;;;;;;;14.50;8.50;;;;;;;6.57;77.62;100005.33;107572;1254;98319;-59
2022/12/30 02:29:03;;;;;;;12.60;8.00;;;;;;;6.58;77.63;100006.27;107565;1257;88226;-61
2022/12/30 02:31:54;;;;;;;14.10;7.80;;;;;;;6.59;77.54;100009.27;107608;1254;95207;-58
2022/12/30 02:34:49;;;;;;;13.80;8.90;;;;;;;6.56;77.63;100013.18;107593;1254;80991;-59
2022/12/30 02:37:35;;;;;;;12.70;8.20;;;;;;;6.57;77.64;100015.79;107608;1257;82987;-59
2022/12/30 02:40:21;;;;;;;13.50;8.00;;;;;;;6.57;77.62;100013.94;107593;1254;98841;-59
2022/12/30 02:46:11;;;;;;;13.20;8.70;;;;;;;6.56;77.75;100019.21;107586;1254;94520;-58
2022/12/30 02:48:56;;;;;;;11.80;8.20;;;;;;;6.59;77.75;100012.77;107545;1257;81466;-58
2022/12/30 02:54:44;;;;;;;11.40;7.60;;;;;;;6.50;77.52;100013.27;107598;1254;98066;-59
2022/12/30 02:57:37;;;;;;;11.40;8.10;;;;;;;6.41;77.57;100013.56;107577;1254;88521;-62
2022/12/30 03:03:58;;;;;;;15.50;9.10;;;;;;;6.29;77.71;100019.23;107573;1253;78776;-59
2022/12/30 03:07:13;;;;;;;16.80;8.40;;;;;;;6.28;77.89;100019.50;107568;1254;82226;-58
2022/12/30 03:13:08;;;;;;;11.50;8.30;;;;;;;6.21;77.98;100022.08;107555;1255;89826;-58
2022/12/30 03:15:56;;;;;;;14.80;9.10;;;;;;;6.16;78.01;100026.05;107599;1254;95748;-56
2022/12/30 03:18:33;;;;;;;14.20;8.60;;;;;;;6.11;77.98;100027.47;107595;1254;79859;-60
2022/12/30 03:21:11;;;;;;;13.70;9.00;;;;;;;6.06;78.12;100025.40;107598;1253;83067;-58
2022/12/30 03:27:07;;;;;;;13.80;9.10;;;;;;;5.92;78.28;100035.50;107633;1253;88281;-58
2022/12/30 03:29:50;;;;;;;15.40;9.20;;;;;;;5.88;78.39;100038.61;107586;1253;95810;-58
2022/12/30 03:32:29;;;;;;;15.80;8.20;;;;;;;5.85;78.48;100040.45;107605;1256;82298;-58
2022/12/30 03:35:08;;;;;;;13.50;9.00;;;;;;;5.84;78.58;100042.14;107609;1256;81185;-59
2022/12/30 03:37:52;;;;;;;14.20;9.40;;;;;;;5.84;78.58;100045.70;107635;1256;99090;-59
2022/12/30 03:40:39;;;;;;;14.70;9.60;;;;;;;5.80;78.71;100044.55;107621;1256;89148;-57
2022/12/30 03:43:19;;;;;;;15.70;10.00;;;;;;;5.75;78.77;100046.66;107558;1254;95276;-59
2022/12/30 03:46:04;;;;;;;13.70;8.30;;;;;;;5.68;78.94;100043.67;107543;1253;80327;-59
2022/12/30 03:48:44;;;;;;;14.30;9.10;;;;;;;5.66;78.86;100046.39;107539;1254;80114;-59
2022/12/30 03:51:21;;;;;;;16.40;9.20;;;;;;;5.64;78.87;100046.62;107540;1253;100018;-60
2022/12/30 03:54:01;;;;;;;13.30;9.50;;;;;;;5.61;78.97;100049.70;107568;1253;88824;-59
2022/12/30 03:56:37;;;;;;;14.70;8.90;;;;;;;5.59;79.04;100044.20;107603;1254;94929;-59
2022/12/30 03:59:21;;;;;;;14.20;9.40;;;;;;;5.61;79.06;100046.08;107471;1254;80159;-59
2022/12/30 04:01:58;;;;;;;15.70;9.70;;;;;;;5.62;79.15;100050.44;107636;1254;83184;-57
2022/12/30 04:04:36;;;;;;;15.70;9.90;;;;;;;5.60;79.30;100049.61;107606;1253;98788;-58
2022/12/30 04:07:18;;;;;;;16.80;10.20;;;;;;;5.57;79.24;100054.88;107612;1254;88201;-59
2022/12/30 04:09:57;;;;;;;18.80;9.90;;;;;;;5.52;79.30;100060.11;107574;1257;95462;-58
2022/12/30 04:12:41;;;;;;;15.20;10.30;;;;;;;5.49;79.26;100062.58;107506;1254;81623;-59
2022/12/30 04:15:19;;;;;;;15.00;9.70;;;;;;;5.47;79.43;100065.84;107562;1256;81611;-58
2022/12/30 04:18:01;;;;;;;14.90;10.10;;;;;;;5.47;79.48;100067.33;107568;1254;99011;-59
2022/12/30 04:20:46;;;;;;;16.80;9.50;;;;;;;5.44;79.54;100062.77;107533;1254;89176;-59
2022/12/30 04:23:24;;;;;;;22.60;10.90;;;;;;;5.46;79.70;100061.80;107549;1253;95533;-58
2022/12/30 04:26:03;;;;;;;17.60;10.60;;;;;;;5.48;79.56;100064.84;107538;1254;78180;-58
2022/12/30 04:28:43;;;;;;;15.30;10.50;;;;;;;5.47;79.67;100066.15;107577;1254;80721;-59
2022/12/30 04:31:22;;;;;;;16.10;10.20;;;;;;;5.47;79.75;100070.90;107544;1257;97077;-60
2022/12/30 04:34:05;;;;;;;15.80;10.40;;;;;;;5.44;79.65;100072.07;107534;1254;87056;-62
2022/12/30 04:36:45;;;;;;;17.50;10.10;;;;;;;5.45;79.68;100070.20;107581;1253;94858;-59
2022/12/30 04:39:27;;;;;;;16.80;11.10;;;;;;;5.45;79.91;100065.33;107576;1253;80072;-59
2022/12/30 04:42:09;;;;;;;16.90;10.60;;;;;;;5.49;79.81;100064.61;107582;1256;81733;-59
2022/12/30 04:44:46;;;;;;;19.00;10.70;;;;;;;5.53;79.89;100059.26;107476;1257;97972;-60
2022/12/30 04:47:29;;;;;;;18.60;10.80;;;;;;;5.61;79.98;100059.44;107578;1253;88704;-59
2022/12/30 04:50:10;;;;;;;17.30;10.50;;;;;;;5.69;79.85;100060.22;107589;1254;94582;-58
2022/12/30 04:52:53;;;;;;;16.10;9.80;;;;;;;5.70;79.98;100058.98;107536;1253;81115;-59
2022/12/30 04:55:28;;;;;;;16.70;10.30;;;;;;;5.71;79.85;100063.04;107593;1254;82344;-59
2022/12/30 04:58:04;;;;;;;15.90;9.90;;;;;;;5.71;79.86;100065.14;107654;1253;97695;-59
2022/12/30 05:00:44;;;;;;;16.90;10.00;;;;;;;5.72;79.80;100071.48;107551;1253;88943;-60
2022/12/30 05:03:28;;;;;;;17.10;9.60;;;;;;;5.74;79.78;100069.48;107592;1252;94716;-59
2022/12/30 05:06:07;;;;;;;15.10;9.00;;;;;;;5.73;79.75;100071.15;107600;1253;80503;-59
2022/12/30 05:08:44;;;;;;;14.10;10.40;;;;;;;5.75;79.96;100075.27;107594;1253;83876;-59
2022/12/30 05:11:23;;;;;;;15.70;10.30;;;;;;;5.80;80.03;100080.67;107527;1254;98436;-58
2022/12/30 05:14:02;;;;;;;14.70;9.50;;;;;;;5.85;79.99;100078.14;107567;1256;86727;-58
2022/12/30 05:16:45;;;;;;;14.40;10.20;;;;;;;5.89;79.88;100081.64;107574;1254;94626;-59
2022/12/30 05:19:25;;;;;;;16.70;10.00;;;;;;;5.93;79.77;100079.89;107602;1254;81382;-59
2022/12/30 05:22:04;;;;;;;15.40;9.20;;;;;;;5.99;79.85;100078.27;107578;1253;80841;-59
2022/12/30 05:27:42;;;;;;;17.80;9.90;;;;;;;6.09;80.02;100083.73;107362;1254;88743;-59
2022/12/30 05:30:26;;;;;;;19.10;10.40;;;;;;;6.12;79.97;100084.78;107540;1253;94509;-59
2022/12/30 05:33:09;;;;;;;16.10;9.70;;;;;;;6.17;79.97;100084.28;107577;1254;80449;-59
2022/12/30 05:35:50;;;;;;;16.90;10.00;;;;;;;6.20;79.85;100088.52;107540;1257;83033;-60
2022/12/30 05:38:25;;;;;;;14.50;9.50;;;;;;;6.18;79.88;100090.92;107623;1253;99716;-59
2022/12/30 05:41:02;;;;;;;16.00;9.60;;;;;;;6.19;79.79;100096.21;107600;1253;88805;-61
2022/12/30 05:43:41;;;;;;;14.50;8.90;;;;;;;6.20;79.87;100096.55;107616;1253;95104;-60
2022/12/30 05:46:24;;;;;;;13.80;8.60;;;;;;;6.23;79.86;100104.49;107616;1252;78815;-59
2022/12/30 05:49:05;;;;;;;14.20;9.10;;;;;;;6.29;79.97;100111.45;107523;1253;80793;-60
2022/12/30 05:51:52;;;;;;;12.80;8.70;;;;;;;6.35;80.00;100124.20;107574;1254;97440;-60
2022/12/30 05:54:32;;;;;;;13.60;9.10;;;;;;;6.44;79.82;100124.10;107600;1252;87001;-61
2022/12/30 05:57:11;;;;;;;14.00;9.40;;;;;;;6.52;79.77;100121.06;107591;1253;95698;-61
2022/12/30 05:59:52;;;;;;;12.80;8.30;;;;;;;6.56;79.75;100129.27;107586;1254;78398;-60
2022/12/30 06:02:34;;;;;;;14.30;9.70;;;;;;;6.55;79.77;100126.45;107582;1253;83212;-60
2022/12/30 06:05:12;;;;;;;14.10;10.20;;;;;;;6.58;79.65;100126.73;107538;1253;98974;-58
2022/12/30 06:07:53;;;;;;;14.00;9.30;;;;;;;6.58;79.72;100130.14;107492;1253;87633;-59
2022/12/30 06:10:36;;;;;;;16.20;9.30;;;;;;;6.56;79.54;100125.67;107468;1253;95384;-60
2022/12/30 06:13:19;;;;;;;13.20;9.50;;;;;;;6.55;79.64;100126.29;107530;1253;82514;-60
2022/12/30 06:16:00;;;;;;;15.70;9.20;;;;;;;6.58;79.70;100129.36;107574;1253;82019;-61
2022/12/30 06:18:44;;;;;;;12.90;8.60;;;;;;;6.61;79.67;100133.02;107544;1253;99408;-59
2022/12/30 06:21:26;;;;;;;13.10;8.70;;;;;;;6.62;79.68;100131.77;107585;1253;88613;-59
2022/12/30 06:24:10;;;;;;;15.90;9.40;;;;;;;6.60;79.79;100139.20;107588;1254;93197;-60
2022/12/30 06:26:54;;;;;;;15.60;9.50;;;;;;;6.58;79.78;100141.55;107592;1253;78962;-60
2022/12/30 06:29:38;;;;;;;14.10;8.80;;;;;;;6.57;79.68;100138.79;107566;1253;83397;-61
2022/12/30 06:32:26;;;;;;;12.90;8.90;;;;;;;6.57;79.69;100144.09;107589;1256;100240;-61
2022/12/30 06:35:08;;;;;;;12.10;8.10;;;;;;;6.58;79.62;100143.67;107227;1253;494239;-60
2022/12/30 06:37:51;;;;;;;13.80;8.80;;;;;;;6.61;79.77;100154.06;107529;1256;94613;-60
2022/12/30 06:40:39;;;;;;;12.40;8.30;;;;;;;6.68;79.82;100157.27;107583;1253;80479;-59
2022/12/30 06:43:14;;;;;;;;;;;;;;;6.73;79.78;100163.59;107567;1253;80133;-60
2022/12/30 06:45:52;;;;;;;11.90;8.30;;;;;;;6.76;79.79;100170.13;107591;1256;98015;-59
2022/12/30 06:48:35;;;;;;;12.70;8.80;;;;;;;6.78;79.92;100172.25;107491;1253;89054;-57
2022/12/30 06:51:16;;;;;;;17.00;9.70;;;;;;;6.77;79.88;100168.36;107549;1253;95104;-60
2022/12/30 06:53:51;;;;;;;11.50;8.50;;;;;;;6.78;79.87;100173.63;107580;1253;80934;-59
2022/12/30 06:56:31;;;;;;;14.00;9.00;;;;;;;6.82;79.91;100179.63;107564;1253;82361;-60
2022/12/30 06:59:17;;;;;;;13.20;8.80;;;;;;;6.85;79.79;100184.83;107561;1253;99001;-59
2022/12/30 07:01:58;;;;;;;13.80;8.90;;;;;;;6.87;79.80;100192.84;107560;1253;87771;-59
2022/12/30 07:04:38;;;;;;;14.10;9.40;;;;;;;6.86;79.77;100191.86;107450;1253;93955;-60
2022/12/30 07:07:17;;;;;;;14.40;9.10;;;;;;;6.86;79.72;100193.17;107541;1253;81169;-60
2022/12/30 07:09:55;;;;;;;13.90;8.90;;;;;;;6.87;79.77;100201.30;107566;1256;82811;-60
2022/12/30 07:12:34;;;;;;;14.40;9.00;;;;;;;6.85;79.76;100205.09;107561;1256;98437;-59
2022/12/30 07:15:13;;;;;;;14.90;8.80;;;;;;;6.86;79.80;100209.12;107550;1253;88261;-59
2022/12/30 07:17:59;;;;;;;13.90;9.50;;;;;;;6.89;79.92;100224.28;107585;1253;96173;-60
2022/12/30 07:20:38;;;;;;;12.40;8.90;;;;;;;6.91;79.78;100224.61;107541;1254;80386;-59
2022/12/30 07:23:22;;;;;;;14.00;8.90;;;;;;;6.96;79.90;100230.02;107585;1256;82391;-59
2022/12/30 07:25:59;;;;;;;13.30;8.50;;;;;;;6.96;79.89;100238.00;107584;1256;100286;-60
2022/12/30 07:28:42;;;;;;;12.20;8.50;;;;;;;6.96;79.90;100237.66;107583;1252;87341;-61
2022/12/30 07:31:24;;;;;;;14.30;8.70;;;;;;;6.92;79.93;100239.86;107465;1253;95328;-61
2022/12/30 07:34:08;;;;;;;15.10;9.10;;;;;;;6.93;79.98;100247.80;107548;1253;81971;-59
2022/12/30 07:36:49;;;;;;;15.90;9.50;;;;;;;6.98;79.91;100244.91;107475;1253;82188;-58
2022/12/30 07:39:32;;;;;;;15.10;9.90;;;;;;;7.01;79.99;100237.59;107563;1253;98301;-58
2022/12/30 07:42:14;;;;;;;15.40;9.00;;;;;;;7.03;79.90;100247.13;107547;1253;87369;-59
2022/12/30 07:44:58;;;;;;;13.30;9.20;;;;;;;7.02;79.97;100255.62;107519;1253;95153;-59
2022/12/30 07:47:38;;;;;;;13.80;8.90;;;;;;;7.02;79.77;100266.02;107488;1253;80956;-59
2022/12/30 07:50:16;;;;;;;16.40;10.30;;;;;;;7.03;79.98;100267.55;107582;1253;83049;-60
2022/12/30 07:52:59;;;;;;;13.60;9.20;;;;;;;7.06;80.07;100267.52;107545;1253;98653;-61
2022/12/30 07:55:41;;;;;;;11.30;8.20;;;;;;;7.08;79.96;100265.14;107593;1253;87253;-59
2022/12/30 07:58:18;;;;;;;12.40;8.50;;;;;;;7.14;79.96;100269.63;107601;1253;94829;-59
2022/12/30 08:00:56;;;;;;;13.00;8.90;;;;;;;7.19;80.07;100281.52;107646;1256;80332;-59
2022/12/30 08:03:43;;;;;;;11.60;8.40;;;;;;;7.23;80.02;100274.95;107607;1253;80235;-59
2022/12/30 08:06:20;;;;;;;12.90;8.00;;;;;;;7.29;80.00;100281.98;107598;1252;96307;-59
2022/12/30 08:08:58;;;;;;;12.50;8.40;;;;;;;7.33;79.86;100287.25;107611;1252;86703;-59
2022/12/30 08:11:45;;;;;;;10.80;7.70;;;;;;;7.35;79.81;100290.61;107548;1254;93467;-60
2022/12/30 08:14:25;;;;;;;10.90;7.60;;;;;;;7.36;79.84;100285.41;107510;1253;81760;-60
2022/12/30 08:17:06;;;;;;;12.40;7.20;;;;;;;7.38;79.84;100289.00;107595;1253;83659;-59
2022/12/30 08:19:47;;;;;;;11.30;7.40;;;;;;;7.46;79.87;100292.53;107524;1253;99394;-59
2022/12/30 08:22:34;;;;;;;14.50;8.00;;;;;;;7.53;79.76;100298.23;107470;1253;90421;-60
2022/12/30 08:25:11;;;;;;;10.00;6.90;;;;;;;7.60;79.68;100301.86;107538;1253;94344;-59
2022/12/30 08:27:53;;;;;;;11.60;7.90;;;;;;;7.64;79.60;100304.08;107478;1254;79718;-60
2022/12/30 08:30:38;;;;;;;12.20;7.70;;;;;;;7.63;79.57;100305.88;107485;1253;81285;-60
2022/12/30 08:33:13;;;;;;;12.80;8.10;;;;;;;7.63;79.56;100310.63;107540;1253;98717;-62
2022/12/30 08:35:50;;;;;;;13.20;7.60;;;;;;;7.67;79.52;100310.93;107589;1253;86341;-60
2022/12/30 08:38:31;;;;;;;12.30;7.30;;;;;;;7.69;79.47;100313.51;107574;1253;94741;-61
2022/12/30 08:41:14;;;;;;;11.30;7.90;;;;;;;7.72;79.47;100325.39;107589;1253;80532;-60
2022/12/30 08:43:58;;;;;;;13.60;8.00;;;;;;;7.85;79.54;100329.39;107542;1257;83451;-59
2022/12/30 08:46:41;;;;;;;12.40;8.10;;;;;;;7.89;79.26;100333.67;107526;1254;99261;-59
2022/12/30 08:49:19;;;;;;;13.70;8.20;;;;;;;7.94;79.19;100336.75;107626;1253;87219;-58
2022/12/30 08:52:01;;;;;;;13.30;8.50;;;;;;;8.00;79.20;100338.17;107580;1253;95496;-60
2022/12/30 08:54:40;;;;;;;14.80;8.90;;;;;;;8.09;79.14;100344.16;107573;1253;82187;-58
2022/12/30 08:57:25;;;;;;;12.60;8.00;;;;;;;8.22;79.20;100349.45;107617;1254;80430;-59
2022/12/30 09:00:06;;;;;;;14.30;8.40;;;;;;;8.45;79.42;100349.69;107575;1253;100396;-61
2022/12/30 09:02:49;;;;;;;12.10;7.40;;;;;;;8.86;79.49;100344.43;107564;1254;87806;-61
2022/12/30 09:05:30;;;;;;;11.90;7.90;;;;;;;9.74;78.86;100341.11;107561;1253;93782;-60
2022/12/30 09:08:08;;;;;;;12.90;7.90;;;;;;;10.48;78.03;100344.36;107606;1253;77431;-60
2022/12/30 09:10:57;;;;;;;12.10;7.60;;;;;;;11.02;77.13;100352.34;107588;1253;83216;-60
2022/12/30 09:13:38;;;;;;;9.00;6.90;;;;;;;11.36;76.31;100353.16;107481;1257;97431;-61
2022/12/30 09:16:21;;;;;;;10.60;6.70;;;;;;;11.42;75.77;100355.33;107598;1256;88359;-60
2022/12/30 09:19:01;;;;;;;10.00;7.00;;;;;;;11.49;74.76;100351.44;107547;1253;95678;-62
2022/12/30 09:21:43;;;;;;;10.60;6.80;;;;;;;11.43;73.75;100350.55;107600;1254;79665;-60
2022/12/30 09:24:25;;;;;;;8.90;6.00;;;;;;;11.22;73.66;100353.78;107604;1253;82134;-59
2022/12/30 09:27:11;;;;;;;7.70;5.80;;;;;;;11.10;73.81;100354.68;107577;1256;99569;-59
2022/12/30 09:29:54;;;;;;;9.10;6.40;;;;;;;11.22;73.32;100354.70;107588;1253;89492;-59
2022/12/30 09:32:41;;;;;;;10.40;6.50;;;;;;;11.51;73.18;100353.58;107564;1252;94604;-60
2022/12/30 09:35:23;;;;;;;10.90;5.60;;;;;;;11.88;73.12;100350.20;107599;1253;79020;-61
2022/12/30 09:38:02;;;;;;;8.40;5.50;;;;;;;12.16;72.65;100349.52;107524;1253;81234;-60
2022/12/30 09:40:56;;;;;;;9.30;4.60;;;;;;;12.53;71.69;100352.34;107594;1253;97003;-59
2022/12/30 09:43:43;;;;;;;6.50;4.40;;;;;;;12.96;71.19;100354.67;107549;1253;89116;-59
2022/12/30 09:46:42;;;;;;;7.30;4.20;;;;;;;13.36;71.12;100357.89;107531;1253;94943;-60
2022/12/30 09:49:31;;;;;;;6.90;4.40;;;;;;;13.74;70.68;100362.89;107571;1253;81240;-61
2022/12/30 09:52:23;;;;;;;6.40;4.20;;;;;;;14.08;68.64;100361.66;107588;1253;82059;-60
2022/12/30 09:55:06;;;;;;;7.00;4.60;;;;;;;14.42;68.77;100365.13;107563;1254;99890;-61
2022/12/30 09:57:56;;;;;;;8.00;3.60;;;;;;;14.78;67.61;100357.35;107602;1253;87789;-59
2022/12/30 10:00:38;;;;;;;8.10;3.50;;;;;;;14.98;67.23;100353.67;107550;1254;94999;-61
2022/12/30 10:03:25;;;;;;;6.30;3.70;;;;;;;15.23;66.85;100352.70;107551;1253;80902;-60
2022/12/30 10:06:25;;;;;;;6.70;3.50;;;;;;;15.36;66.20;100350.17;107607;1253;80591;-60
2022/12/30 10:09:30;;;;;;;6.70;3.20;;;;;;;15.26;65.42;100361.14;107606;1253;100017;-61
2022/12/30 10:12:30;;;;;;;6.10;3.10;;;;;;;15.46;64.11;100362.82;107604;1253;87063;-62
2022/12/30 10:15:36;;;;;;;8.30;3.20;;;;;;;15.75;64.13;100369.83;107594;1253;95346;-60
2022/12/30 10:18:52;;;;;;;6.90;3.20;;;;;;;15.95;63.57;100381.20;107539;1256;80179;-60
2022/12/30 10:21:48;;;;;;;5.00;3.40;;;;;;;15.94;62.85;100382.63;107589;1253;80838;-60
2022/12/30 10:24:45;;;;;;;7.50;3.40;;;;;;;15.89;62.18;100383.81;107553;1253;98598;-60
2022/12/30 10:27:27;;;;;;;5.40;3.10;;;;;;;15.62;61.81;100384.80;107529;1253;90734;-59
2022/12/30 10:30:12;;;;;;;6.10;3.50;;;;;;;15.14;61.65;100387.35;107599;1253;95413;-61
2022/12/30 10:33:00;;;;;;;8.70;4.10;;;;;;;14.52;61.78;100382.61;107641;1253;78419;-60
2022/12/30 10:35:43;;;;;;;7.60;3.60;;;;;;;13.93;62.30;100385.37;107594;1253;82231;-60
2022/12/30 10:38:21;;;;;;;10.80;3.80;;;;;;;13.49;62.76;100391.63;107572;1253;99317;-59
2022/12/30 10:41:10;;;;;;;8.60;3.90;;;;;;;13.12;63.11;100398.08;107634;1253;88046;-60
2022/12/30 10:44:04;;;;;;;8.60;3.40;;;;;;;12.79;63.39;100393.63;107554;1256;94954;-59
2022/12/30 10:47:23;;;;;;;8.10;3.40;;;;;;;12.38;63.83;100387.19;107599;1253;79603;-60
2022/12/30 10:50:32;;;;;;;8.10;3.50;;;;;;;11.97;64.13;100393.36;107455;1253;81712;-60
2022/12/30 10:53:18;;;;;;;8.20;3.60;;;;;;;11.61;64.38;100387.58;107496;1253;99044;-60
2022/12/30 10:56:05;;;;;;;8.30;3.50;;;;;;;11.39;64.62;100389.88;107572;1253;88148;-59
2022/12/30 10:58:48;;;;;;;7.20;3.70;;;;;;;11.21;64.98;100394.92;107528;1253;94549;-60
2022/12/30 11:01:30;;;;;;;9.30;3.20;;;;;;;11.12;65.32;100393.70;107569;1253;78030;-60
2022/12/30 11:04:10;;;;;;;8.90;3.30;;;;;;;11.02;65.46;100394.94;107506;1253;79942;-60
2022/12/30 11:07:02;;;;;;;9.20;3.00;;;;;;;10.86;65.58;100404.00;107565;1253;98249;-60
2022/12/30 11:09:47;;;;;;;7.40;3.20;;;;;;;10.75;65.78;100408.98;107564;1253;88618;-60
2022/12/30 11:15:49;;;;;;;5.90;2.40;;;;;;;10.55;65.87;100417.42;107543;1253;80695;-60
2022/12/30 11:18:30;;;;;;;5.60;2.60;;;;;;;10.51;65.82;100420.66;107569;1253;82358;-59
2022/12/30 11:21:09;;;;;;;6.80;2.70;;;;;;;10.46;65.75;100426.46;107486;1253;99933;-60
2022/12/30 11:23:56;;;;;;;8.60;2.70;;;;;;;10.36;65.65;100435.80;107563;1253;89504;-60
2022/12/30 11:26:48;;;;;;;8.40;3.30;;;;;;;10.19;65.48;100436.00;107569;1253;95154;-59
2022/12/30 11:29:37;;;;;;;6.90;2.80;;;;;;;10.15;65.54;100437.39;107551;1253;80868;-59
2022/12/30 11:32:17;;;;;;;5.40;2.80;;;;;;;10.15;65.81;100443.20;107553;1253;82698;-59
2022/12/30 11:35:00;;;;;;;7.30;2.90;;;;;;;10.20;65.81;100451.21;107560;1253;97118;-60
2022/12/30 11:37:40;;;;;;;7.00;2.70;;;;;;;10.16;65.96;100450.39;107483;1253;89030;-59
2022/12/30 11:40:38;;;;;;;6.90;3.00;;;;;;;10.16;65.88;100452.37;107619;1253;92660;-61
2022/12/30 11:43:20;;;;;;;7.20;2.60;;;;;;;10.10;65.88;100459.72;107551;1253;79182;-60
2022/12/30 11:46:09;;;;;;;7.70;2.90;;;;;;;10.00;65.54;100456.99;107595;1252;82467;-60
2022/12/30 11:48:51;;;;;;;9.60;3.40;;;;;;;9.87;65.67;100460.73;107582;1252;99454;-60
2022/12/30 11:51:38;;;;;;;10.40;2.70;;;;;;;9.77;65.87;100468.04;107612;1253;87348;-59
2022/12/30 11:54:23;;;;;;;7.80;2.60;;;;;;;9.66;66.06;100474.91;107581;1253;95235;-59
2022/12/30 11:57:05;;;;;;;7.90;3.10;;;;;;;9.59;66.24;100472.74;107561;1253;79687;-58
2022/12/30 11:59:49;;;;;;;9.50;3.60;;;;;;;9.48;66.20;100471.90;107594;1253;81861;-61
2022/12/30 12:02:32;;;;;;;10.20;3.60;;;;;;;9.40;66.37;100466.73;107574;1253;99388;-58
2022/12/30 12:05:28;;;;;;;6.00;2.60;;;;;;;9.34;66.46;100467.19;107593;1253;87525;-59
2022/12/30 12:08:21;;;;;;;7.60;2.80;;;;;;;9.28;66.66;100469.17;107560;1253;95622;-60
2022/12/30 12:11:02;;;;;;;7.60;3.10;;;;;;;9.23;66.82;100472.72;107546;1252;79631;-62
2022/12/30 12:13:45;;;;;;;10.40;4.00;;;;;;;9.16;67.13;100476.05;107561;1254;80484;-61
2022/12/30 12:16:28;;;;;;;;;;;;;;;9.10;67.04;100474.25;107600;1253;99469;-60
2022/12/30 12:19:17;;;;;;;8.10;2.60;;;;;;;9.02;67.21;100472.55;107524;1253;86719;-59
2022/12/30 12:22:04;;;;;;;8.30;3.10;;;;;;;8.93;67.38;100471.59;107472;1254;94699;-61
2022/12/30 12:25:04;;;;;;;11.00;4.20;;;;;;;8.87;67.49;100476.75;107544;1254;79831;-60
2022/12/30 12:27:49;;;;;;;8.70;3.00;;;;;;;8.81;67.54;100477.87;107622;1256;81920;-60
2022/12/30 12:30:44;;;;;;;8.70;2.90;;;;;;;8.77;67.59;100477.16;107535;1254;99101;-60
2022/12/30 12:33:38;;;;;;;8.00;3.50;;;;;;;8.71;67.76;100476.75;107545;1253;88698;-60
2022/12/30 12:36:29;;;;;;;8.60;2.80;;;;;;;8.64;67.92;100475.63;107543;1256;92138;-60
2022/12/30 12:39:12;;;;;;;6.20;3.10;;;;;;;8.56;68.10;100478.02;107557;1253;79188;-60
2022/12/30 12:42:26;;;;;;;10.00;2.90;;;;;;;8.48;68.23;100475.83;107616;1253;82481;-59
2022/12/30 12:45:52;;;;;;;7.40;3.20;;;;;;;8.44;68.38;100475.82;107340;1253;98162;-59
2022/12/30 12:49:13;;;;;;;9.50;3.40;;;;;;;8.36;68.68;100480.48;107512;1253;87533;-59
2022/12/30 12:52:09;;;;;;;10.60;3.40;;;;;;;8.30;68.83;100486.56;107435;1253;94874;-60
2022/12/30 12:55:26;;;;;;;8.90;3.20;;;;;;;8.23;68.98;100490.11;107480;1253;79999;-60
2022/12/30 12:58:12;;;;;;;8.80;3.10;;;;;;;8.16;69.17;100495.08;107599;1256;82792;-59
2022/12/30 13:01:01;;;;;;;9.50;3.10;;;;;;;8.12;69.42;100490.17;107584;1252;98792;-58
2022/12/30 13:04:00;;;;;;;7.70;2.80;;;;;;;8.05;69.69;100486.48;107494;1257;88001;-61
2022/12/30 13:06:51;;;;;;;9.50;2.90;;;;;;;7.98;69.94;100491.17;107578;1256;95459;-60
2022/12/30 13:09:46;;;;;;;9.70;3.30;;;;;;;7.98;70.26;100490.80;107555;1253;80187;-61
2022/12/30 13:12:32;;;;;;;11.00;3.00;;;;;;;7.96;70.45;100494.34;107618;1253;84143;-61
2022/12/30 13:15:23;;;;;;;7.50;3.20;;;;;;;7.96;70.78;100491.11;107623;1253;98949;-61
2022/12/30 13:18:09;;;;;;;8.40;2.80;;;;;;;7.96;70.89;100491.31;107581;1253;88916;-59
2022/12/30 13:20:56;;;;;;;7.80;3.20;;;;;;;7.95;70.95;100489.23;107486;1254;92540;-61
2022/12/30 13:23:41;;;;;;;5.80;2.50;;;;;;;7.88;71.06;100492.36;107529;1253;78150;-61
2022/12/30 13:26:24;;;;;;;8.90;2.80;;;;;;;7.79;71.11;100494.95;107590;1253;83098;-59
2022/12/30 13:29:08;;;;;;;10.60;3.30;;;;;;;7.71;71.33;100497.79;107588;1252;99609;-59
2022/12/30 13:31:56;;;;;;;8.90;2.90;;;;;;;7.65;71.37;100495.69;107571;1254;89191;-59
2022/12/30 13:34:43;;;;;;;6.70;3.10;;;;;;;7.57;71.45;100502.31;107523;1253;92830;-60